Essington, United Kingdom
Current Conditions -  °F | °C
As of 5:20 PM on Thursday 18 Dec 2014 (Local Time) from EGBB Reporting Station
Broken Clouds Broken Clouds  
Wind Chill: 14°   Ceiling: 2000
Heat Index: 14°   Visibility: 6mi
Dew Point: 10°   Wind: 15mph
Humidity: 77%   Direction: 240°WSW
Pressure: 29.71"   Gusts: 28mph
Location:  52.63°N, 2.06°W
Report Text: EGBB 181720Z 24013G24KT 210V270 9999 BKN020 BKN025 14/10 Q1006
Loading
Personal Weather Stations






























Interactive Weather Map New forecast layout! Learn more

10-Day Weather Forecast

Advertisements
Track Severe Weather on mobile